createdAt,value
2018-05-14T00:01:02.770Z,97.50
2018-05-14T00:03:31.083Z,97.80
2018-05-14T00:05:58.654Z,97.50
2018-05-14T00:08:26.209Z,97.60
2018-05-14T00:10:53.754Z,97.40
2018-05-14T00:13:21.290Z,97.60
2018-05-14T00:15:49.596Z,97.80
2018-05-14T00:18:17.904Z,97.60
2018-05-14T00:20:45.450Z,97.60
2018-05-14T00:23:13.084Z,97.60
2018-05-14T00:25:41.363Z,97.80
2018-05-14T00:28:08.891Z,97.70
2018-05-14T00:30:37.208Z,97.70
2018-05-14T00:33:04.762Z,97.70
2018-05-14T00:35:32.436Z,97.70
2018-05-14T00:38:00.001Z,97.90
2018-05-14T00:40:27.529Z,97.90
2018-05-14T00:42:55.215Z,97.90
2018-05-14T00:45:22.751Z,97.90
2018-05-14T00:47:50.285Z,97.80
2018-05-14T00:50:18.609Z,97.90
2018-05-14T00:52:46.901Z,98.00
2018-05-14T00:55:17.318Z,98.00
2018-05-14T00:57:44.855Z,97.90
2018-05-14T01:00:12.390Z,97.90
2018-05-14T01:02:40.684Z,98.00
2018-05-14T01:05:08.239Z,98.00
2018-05-14T01:07:35.773Z,98.10
2018-05-14T01:10:04.078Z,98.20
2018-05-14T01:12:31.611Z,98.20
2018-05-14T01:14:59.921Z,98.20
2018-05-14T01:17:27.548Z,98.20
2018-05-14T01:19:55.859Z,98.00
2018-05-14T01:22:24.146Z,98.00
2018-05-14T01:24:57.415Z,98.00
2018-05-14T01:27:24.972Z,98.00
2018-05-14T01:29:52.541Z,98.10
2018-05-14T01:32:20.074Z,98.20
2018-05-14T01:34:48.383Z,98.10
2018-05-14T01:37:15.953Z,98.10
2018-05-14T01:39:43.474Z,98.10
2018-05-14T01:42:11.024Z,98.20
2018-05-14T01:44:39.326Z,98.10
2018-05-14T01:47:06.868Z,98.10
2018-05-14T01:49:34.453Z,98.20
2018-05-14T01:52:01.959Z,98.30
2018-05-14T01:54:29.524Z,98.30
2018-05-14T01:56:57.061Z,98.30
2018-05-14T01:59:24.679Z,98.30
2018-05-14T02:01:52.245Z,98.30
2018-05-14T02:04:19.782Z,98.30
2018-05-14T02:06:47.347Z,98.30
2018-05-14T02:09:14.892Z,98.30
2018-05-14T02:11:42.461Z,98.40
2018-05-14T02:14:09.995Z,98.40
2018-05-14T02:16:38.291Z,98.50
2018-05-14T02:19:05.826Z,98.40
2018-05-14T02:21:34.128Z,98.40
2018-05-14T02:24:01.663Z,98.40
2018-05-14T02:26:29.975Z,98.30
2018-05-14T02:28:57.543Z,98.40
2018-05-14T02:31:25.085Z,98.40
2018-05-14T02:33:52.630Z,98.40
2018-05-14T02:36:20.948Z,98.50
2018-05-14T02:38:48.512Z,98.50
2018-05-14T02:41:16.049Z,98.30
2018-05-14T02:43:43.588Z,98.20
2018-05-14T02:46:11.130Z,98.20
2018-05-14T02:48:39.455Z,98.20
2018-05-14T02:51:06.986Z,98.20
2018-05-14T02:53:34.527Z,98.10
2018-05-14T02:56:02.076Z,98.20
2018-05-14T02:58:30.395Z,98.20
2018-05-14T03:00:57.957Z,98.10
2018-05-14T03:03:25.508Z,98.00
2018-05-14T03:05:53.074Z,98.10
2018-05-14T03:08:20.639Z,98.20
2018-05-14T03:10:48.188Z,97.60
2018-05-14T03:13:15.703Z,97.90
2018-05-14T03:15:44.024Z,97.90
2018-05-14T03:18:11.587Z,97.80
2018-05-14T03:20:39.171Z,97.70
2018-05-14T03:23:06.699Z,97.80
2018-05-14T03:25:34.240Z,97.60
2018-05-14T03:28:01.762Z,97.60
2018-05-14T03:30:29.302Z,97.80
2018-05-14T03:32:56.834Z,97.60
2018-05-14T03:35:24.371Z,97.70
2018-05-14T03:37:51.906Z,97.80
2018-05-14T03:40:19.432Z,97.80
2018-05-14T03:42:46.982Z,97.80
2018-05-14T03:45:14.578Z,97.50
2018-05-14T03:47:42.099Z,97.10
2018-05-14T03:50:09.645Z,97.60
2018-05-14T03:52:37.187Z,97.60
2018-05-14T03:55:04.724Z,97.60
2018-05-14T03:57:32.291Z,97.50
2018-05-14T04:00:11.748Z,97.40
2018-05-14T04:02:51.240Z,97.60
2018-05-14T04:05:19.586Z,97.70
2018-05-14T04:07:47.134Z,97.70
2018-05-14T04:10:14.706Z,97.80
2018-05-14T04:12:42.254Z,97.90
2018-05-14T04:15:09.776Z,97.80
2018-05-14T04:17:37.427Z,97.60
2018-05-14T04:20:04.911Z,97.50
2018-05-14T04:22:32.466Z,97.60
2018-05-14T04:25:00.000Z,97.40
2018-05-14T04:27:28.322Z,97.60
2018-05-14T04:29:55.887Z,97.60
2018-05-14T04:32:23.488Z,97.60
2018-05-14T04:34:51.039Z,97.30
2018-05-14T04:37:18.583Z,97.30
2018-05-14T04:39:46.118Z,97.60
2018-05-14T04:42:13.707Z,97.30
2018-05-14T04:44:41.252Z,97.30
2018-05-14T04:47:08.829Z,97.50
2018-05-14T04:49:36.386Z,97.60
2018-05-14T04:52:03.921Z,97.30
2018-05-14T04:54:31.505Z,97.20
2018-05-14T04:56:59.838Z,97.00
2018-05-14T04:59:27.375Z,97.00
2018-05-14T05:01:55.680Z,97.00
2018-05-14T05:04:23.218Z,97.00
2018-05-14T05:06:50.764Z,96.90
2018-05-14T05:09:19.052Z,96.80
2018-05-14T05:11:46.640Z,96.80
2018-05-14T05:14:16.084Z,96.70
2018-05-14T05:16:43.611Z,96.70
2018-05-14T05:19:11.160Z,96.40
2018-05-14T05:21:38.691Z,96.50
2018-05-14T05:24:06.218Z,96.80
2018-05-14T05:26:34.523Z,97.30
2018-05-14T05:29:02.066Z,97.30
2018-05-14T05:31:29.621Z,97.20
2018-05-14T05:33:57.178Z,97.30
2018-05-14T05:36:25.523Z,96.50
2018-05-14T05:38:53.328Z,96.50
2018-05-14T05:41:20.878Z,96.90
2018-05-14T05:43:49.219Z,96.60
2018-05-14T05:46:16.750Z,96.60
2018-05-14T05:48:44.287Z,96.40
2018-05-14T05:51:17.146Z,96.50
2018-05-14T05:53:44.698Z,96.80
2018-05-14T05:56:12.291Z,96.80
2018-05-14T05:58:39.958Z,96.60
2018-05-14T06:01:07.544Z,96.40
2018-05-14T06:03:35.214Z,96.60
2018-05-14T06:06:02.748Z,96.40
2018-05-14T06:08:31.045Z,96.50
2018-05-14T06:10:58.583Z,96.50
2018-05-14T06:13:26.111Z,96.20
2018-05-14T06:15:54.424Z,96.40
2018-05-14T06:18:22.727Z,96.40
2018-05-14T06:20:50.249Z,96.40
2018-05-14T06:23:17.784Z,96.20
2018-05-14T06:25:46.071Z,95.80
2018-05-14T06:28:13.603Z,95.80
2018-05-14T06:30:41.922Z,95.80
2018-05-14T06:33:09.450Z,95.80
2018-05-14T06:35:37.073Z,95.60
2018-05-14T06:38:04.522Z,95.00
2018-05-14T06:40:32.059Z,95.00
2018-05-14T06:42:59.662Z,95.20
2018-05-14T06:45:27.195Z,94.00
2018-05-14T06:47:54.778Z,94.10
2018-05-14T06:50:22.319Z,94.30
2018-05-14T06:52:49.984Z,94.20
2018-05-14T06:55:17.443Z,94.10
2018-05-14T06:57:45.001Z,94.20
2018-05-14T07:00:12.559Z,94.60
2018-05-14T07:02:40.245Z,95.00
2018-05-14T07:05:07.758Z,94.80
2018-05-14T07:07:35.292Z,94.30
2018-05-14T07:10:02.828Z,94.70
2018-05-14T07:12:31.137Z,94.30
2018-05-14T07:14:58.669Z,94.30
2018-05-14T07:17:26.208Z,93.90
2018-05-14T07:19:53.867Z,94.70
2018-05-14T07:22:21.429Z,94.70
2018-05-14T07:24:48.990Z,94.30
2018-05-14T07:27:16.528Z,94.10
2018-05-14T07:29:44.087Z,93.90
2018-05-14T07:32:11.651Z,93.50
2018-05-14T07:34:39.201Z,93.20
2018-05-14T07:37:06.729Z,93.00
2018-05-14T07:39:34.271Z,93.40
2018-05-14T07:42:01.859Z,93.30
2018-05-14T07:44:29.363Z,93.70
2018-05-14T07:46:57.659Z,93.50
2018-05-14T07:49:25.220Z,93.50
2018-05-14T07:51:53.504Z,93.60
2018-05-14T07:54:21.045Z,93.60
2018-05-14T07:56:48.576Z,93.60
2018-05-14T07:59:16.127Z,93.70
2018-05-14T08:01:43.661Z,93.80
2018-05-14T08:04:11.223Z,94.00
2018-05-14T08:06:38.750Z,93.90
2018-05-14T08:09:06.290Z,94.00
2018-05-14T08:11:37.278Z,93.90
2018-05-14T08:14:05.570Z,93.80
2018-05-14T08:16:33.130Z,93.80
2018-05-14T08:19:00.682Z,93.20
2018-05-14T08:21:28.228Z,93.60
2018-05-14T08:23:55.761Z,93.40
2018-05-14T08:26:23.294Z,92.90
2018-05-14T08:28:51.624Z,92.80
2018-05-14T08:31:19.265Z,92.80
2018-05-14T08:33:46.811Z,92.70
2018-05-14T08:36:14.362Z,92.60
2018-05-14T08:38:41.909Z,93.00
2018-05-14T08:41:10.210Z,92.10
2018-05-14T08:43:37.842Z,92.10
2018-05-14T08:46:05.385Z,91.90
2018-05-14T08:48:33.008Z,91.50
2018-05-14T08:51:00.619Z,91.10
2018-05-14T08:53:28.142Z,90.70
2018-05-14T08:55:55.695Z,90.50
2018-05-14T08:58:23.237Z,90.30
2018-05-14T09:00:50.784Z,90.30
2018-05-14T09:03:18.337Z,90.10
2018-05-14T09:05:45.876Z,89.30
2018-05-14T09:08:14.192Z,89.10
2018-05-14T09:10:41.732Z,89.10
2018-05-14T09:13:09.269Z,88.00
2018-05-14T09:15:36.817Z,87.60
2018-05-14T09:18:05.166Z,89.20
2018-05-14T09:20:32.771Z,89.20
2018-05-14T09:23:00.315Z,87.20
2018-05-14T09:25:28.700Z,87.60
2018-05-14T09:27:56.914Z,84.50
2018-05-14T09:30:24.464Z,84.50
2018-05-14T09:32:52.024Z,86.00
2018-05-14T09:35:19.593Z,85.50
2018-05-14T09:37:47.120Z,85.10
2018-05-14T09:40:14.692Z,83.60
2018-05-14T09:42:42.232Z,83.90
2018-05-14T09:45:09.787Z,83.20
2018-05-14T09:47:37.422Z,82.00
2018-05-14T09:50:04.954Z,81.30
2018-05-14T09:52:32.604Z,82.90
2018-05-14T09:55:00.139Z,81.70
2018-05-14T09:57:31.317Z,81.80
2018-05-14T09:59:58.875Z,80.90
2018-05-14T10:02:26.417Z,79.70
2018-05-14T10:04:53.969Z,79.00
2018-05-14T10:07:21.492Z,80.50
2018-05-14T10:09:49.801Z,80.30
2018-05-14T10:12:17.358Z,80.30
2018-05-14T10:14:44.916Z,80.00
2018-05-14T10:17:12.450Z,78.50
2018-05-14T10:19:40.756Z,79.60
2018-05-14T10:22:08.321Z,79.50
2018-05-14T10:24:35.888Z,80.20
2018-05-14T10:27:03.390Z,77.70
2018-05-14T10:29:30.967Z,78.90
2018-05-14T10:32:09.969Z,82.10
2018-05-14T10:34:45.693Z,81.90
2018-05-14T10:37:30.132Z,83.50
2018-05-14T10:39:57.679Z,83.60
2018-05-14T10:42:30.250Z,83.60
2018-05-14T10:44:57.777Z,83.90
2018-05-14T10:47:26.071Z,84.30
2018-05-14T10:49:53.604Z,84.30
2018-05-14T10:52:21.132Z,84.10
2018-05-14T10:54:50.700Z,85.00
2018-05-14T10:57:18.221Z,84.50
2018-05-14T10:59:45.751Z,84.00
2018-05-14T11:02:13.289Z,83.60
2018-05-14T11:04:40.820Z,82.70
2018-05-14T11:07:09.125Z,78.40
2018-05-14T11:09:44.472Z,78.40
2018-05-14T11:12:12.021Z,76.00
2018-05-14T11:14:39.586Z,76.40
2018-05-14T11:17:12.905Z,73.30
2018-05-14T11:19:40.452Z,73.60
2018-05-14T11:22:23.125Z,74.30
2018-05-14T11:24:50.663Z,76.40
2018-05-14T11:27:18.976Z,76.80
2018-05-14T11:29:46.502Z,76.80
2018-05-14T11:32:14.807Z,77.30
2018-05-14T11:34:42.374Z,77.90
2018-05-14T11:37:09.941Z,77.70
2018-05-14T11:39:37.537Z,78.10
2018-05-14T11:42:05.064Z,78.00
2018-05-14T11:47:27.970Z,79.60
2018-05-14T11:50:12.282Z,78.90
2018-05-14T11:52:50.395Z,78.30
2018-05-14T11:55:17.878Z,77.20
2018-05-14T11:57:45.408Z,76.00
2018-05-14T12:00:12.944Z,77.70
2018-05-14T12:02:40.484Z,77.00
2018-05-14T12:05:08.030Z,76.80
2018-05-14T12:07:36.383Z,78.60
2018-05-14T12:10:04.128Z,78.60
2018-05-14T12:12:31.531Z,77.20
2018-05-14T12:15:00.008Z,77.20
2018-05-14T12:17:28.342Z,80.80
2018-05-14T12:19:55.877Z,80.20
2018-05-14T12:22:24.178Z,80.90
2018-05-14T12:24:51.760Z,80.90
2018-05-14T12:27:20.085Z,81.40
2018-05-14T12:29:47.627Z,81.30
2018-05-14T12:32:15.192Z,80.70
2018-05-14T12:34:42.744Z,81.80
2018-05-14T12:37:10.275Z,82.60
2018-05-14T12:39:37.900Z,82.30
2018-05-14T12:42:05.432Z,81.90
2018-05-14T12:44:32.984Z,81.80
2018-05-14T12:47:00.527Z,82.20
2018-05-14T12:49:28.178Z,82.00
2018-05-14T12:51:56.521Z,80.70
2018-05-14T12:54:24.024Z,80.70
2018-05-14T12:56:52.319Z,81.20
2018-05-14T12:59:19.874Z,81.20
2018-05-14T13:01:47.418Z,81.70
2018-05-14T13:04:15.753Z,81.30
2018-05-14T13:06:43.273Z,81.30
2018-05-14T13:09:10.823Z,82.30
2018-05-14T13:11:38.379Z,82.70
2018-05-14T13:14:05.945Z,82.50
2018-05-14T13:16:33.510Z,81.60
2018-05-14T13:19:01.153Z,83.10
2018-05-14T13:21:29.477Z,82.90
2018-05-14T13:23:56.994Z,82.90
2018-05-14T13:26:24.530Z,85.10
2018-05-14T13:28:52.879Z,88.70
2018-05-14T13:31:20.407Z,88.70
2018-05-14T13:33:47.983Z,89.80
2018-05-14T13:36:15.535Z,90.10
2018-05-14T13:38:43.095Z,90.60
2018-05-14T13:41:10.643Z,91.60
2018-05-14T13:43:38.184Z,92.10
2018-05-14T13:46:05.732Z,92.60
2018-05-14T13:48:33.280Z,93.00
2018-05-14T13:51:01.602Z,93.90
2018-05-14T13:53:29.134Z,93.90
2018-05-14T13:55:56.661Z,94.30
2018-05-14T13:58:24.986Z,94.80
2018-05-14T14:00:52.545Z,94.70
2018-05-14T14:03:20.187Z,94.80
2018-05-14T14:05:48.483Z,94.70
2018-05-14T14:08:16.027Z,94.70
2018-05-14T14:10:43.581Z,95.00
2018-05-14T14:13:11.178Z,95.10
2018-05-14T14:15:38.736Z,94.40
2018-05-14T14:18:06.287Z,93.90
2018-05-14T14:20:33.847Z,94.10
2018-05-14T14:23:01.381Z,92.80
2018-05-14T14:25:28.978Z,92.10
2018-05-14T14:27:56.655Z,91.10
2018-05-14T14:30:24.204Z,90.20
2018-05-14T14:32:51.765Z,89.40
2018-05-14T14:35:19.298Z,90.30
2018-05-14T14:37:46.849Z,90.60
2018-05-14T14:40:14.401Z,91.40
2018-05-14T14:42:41.931Z,90.70
2018-05-14T14:45:10.269Z,91.10
2018-05-14T14:47:37.802Z,91.00
2018-05-14T14:50:05.377Z,90.00
2018-05-14T14:52:32.928Z,82.80
2018-05-14T14:55:00.480Z,80.90
2018-05-14T14:57:28.019Z,81.50
2018-05-14T14:59:55.551Z,87.20
2018-05-14T15:02:23.869Z,88.10
2018-05-14T15:04:51.374Z,88.00
2018-05-14T15:07:18.929Z,78.20
2018-05-14T15:09:46.474Z,76.00
2018-05-14T15:12:14.035Z,75.30
2018-05-14T15:14:41.615Z,79.10
2018-05-14T15:17:09.147Z,83.80
2018-05-14T15:19:36.894Z,72.70
2018-05-14T15:22:04.391Z,71.90
2018-05-14T15:24:31.934Z,74.00
2018-05-14T15:26:59.488Z,73.80
2018-05-14T15:29:27.772Z,76.10
2018-05-14T15:31:55.323Z,76.00
2018-05-14T15:34:22.855Z,76.00
2018-05-14T15:36:51.169Z,75.40
2018-05-14T15:39:18.707Z,75.40
2018-05-14T15:41:46.221Z,74.90
2018-05-14T15:44:13.738Z,72.20
2018-05-14T15:46:41.319Z,74.90
2018-05-14T15:49:09.607Z,74.30
2018-05-14T15:51:37.920Z,70.70
2018-05-14T15:54:05.451Z,70.60
2018-05-14T15:56:33.019Z,74.00
2018-05-14T15:59:01.317Z,70.80
2018-05-14T16:01:28.842Z,70.80
2018-05-14T16:03:56.368Z,71.40
2018-05-14T16:06:23.946Z,73.30
2018-05-14T16:08:52.263Z,73.10
2018-05-14T16:11:20.069Z,73.10
2018-05-14T16:13:47.630Z,75.10
2018-05-14T16:16:15.168Z,76.70
2018-05-14T16:18:42.814Z,76.80
2018-05-14T16:21:10.437Z,78.30
2018-05-14T16:23:38.716Z,79.70
2018-05-14T16:26:06.261Z,79.70
2018-05-14T16:28:34.617Z,79.10
2018-05-14T16:31:02.959Z,79.70
2018-05-14T16:33:30.489Z,79.70
2018-05-14T16:35:58.036Z,80.30
2018-05-14T16:38:25.593Z,81.30
2018-05-14T16:40:53.932Z,82.80
2018-05-14T16:43:21.458Z,82.80
2018-05-14T16:45:48.999Z,86.40
2018-05-14T16:48:16.554Z,87.20
2018-05-14T16:50:44.094Z,87.30
2018-05-14T16:53:11.714Z,88.30
2018-05-14T16:55:39.255Z,88.20
2018-05-14T16:58:06.791Z,88.90
2018-05-14T17:00:34.355Z,89.50
2018-05-14T17:03:02.644Z,90.60
2018-05-14T17:05:30.214Z,90.60
2018-05-14T17:07:57.711Z,90.90
2018-05-14T17:10:25.357Z,90.50
2018-05-14T17:12:52.798Z,90.80
2018-05-14T17:15:20.337Z,86.20
2018-05-14T17:17:47.899Z,78.70
2018-05-14T17:20:15.472Z,77.40
2018-05-14T17:22:43.009Z,79.10
2018-05-14T17:25:10.550Z,80.50
2018-05-14T17:27:38.071Z,79.50
2018-05-14T17:30:05.611Z,80.40
2018-05-14T17:32:33.150Z,82.70
2018-05-14T17:35:00.698Z,83.90
2018-05-14T17:37:28.237Z,85.20
2018-05-14T17:39:55.782Z,83.80
2018-05-14T17:42:24.103Z,79.50
2018-05-14T17:44:51.625Z,79.50
2018-05-14T17:47:19.995Z,76.90
2018-05-14T17:49:47.484Z,76.90
2018-05-14T17:52:15.020Z,75.60
2018-05-14T17:54:42.631Z,75.70
2018-05-14T17:57:10.174Z,76.00
2018-05-14T17:59:37.700Z,76.40
2018-05-14T18:02:05.230Z,75.10
2018-05-14T18:04:32.761Z,75.80
2018-05-14T18:07:00.317Z,77.90
2018-05-14T18:09:27.904Z,78.40
2018-05-14T18:11:55.470Z,78.40
2018-05-14T18:14:23.024Z,76.60
2018-05-14T18:16:50.573Z,77.10
2018-05-14T18:19:18.079Z,77.90
2018-05-14T18:21:48.149Z,78.30
2018-05-14T18:24:15.768Z,78.80
2018-05-14T18:26:46.112Z,81.00
2018-05-14T18:29:19.239Z,77.10
2018-05-14T18:31:53.331Z,80.80
2018-05-14T18:34:20.874Z,80.20
2018-05-14T18:36:48.422Z,80.90
2018-05-14T18:39:16.046Z,83.10
2018-05-14T18:41:44.241Z,86.10
2018-05-14T18:44:13.684Z,86.10
2018-05-14T18:46:41.226Z,87.10
2018-05-14T18:49:08.790Z,88.90
2018-05-14T18:51:36.326Z,90.10
2018-05-14T18:54:03.880Z,90.50
2018-05-14T18:56:31.443Z,91.70
2018-05-14T18:58:58.963Z,92.30
2018-05-14T19:01:27.272Z,92.50
2018-05-14T19:03:55.239Z,92.50
2018-05-14T19:06:22.801Z,92.40
2018-05-14T19:08:50.321Z,92.40
2018-05-14T19:11:23.593Z,92.90
2018-05-14T19:13:51.133Z,93.00
2018-05-14T19:16:24.326Z,93.30
2018-05-14T19:18:51.979Z,93.50
2018-05-14T19:21:19.675Z,93.80
2018-05-14T19:23:53.199Z,93.70
2018-05-14T19:26:20.700Z,93.50
2018-05-14T19:28:55.030Z,93.50
2018-05-14T19:31:22.603Z,94.00
2018-05-14T19:33:55.878Z,93.90
2018-05-14T19:36:23.417Z,93.70
2018-05-14T19:38:51.032Z,94.00
2018-05-14T19:41:19.368Z,94.00
2018-05-14T19:44:10.609Z,94.00
2018-05-14T19:46:40.263Z,94.00
2018-05-14T19:49:07.988Z,94.00
2018-05-14T19:51:35.469Z,93.80
2018-05-14T19:54:11.946Z,93.80
2018-05-14T19:56:41.808Z,94.00
2018-05-14T19:59:09.354Z,94.40
2018-05-14T20:01:36.900Z,94.40
2018-05-14T20:04:04.489Z,94.70
2018-05-14T20:06:32.022Z,94.90
2018-05-14T20:08:59.613Z,94.70
2018-05-14T20:11:29.176Z,94.70
2018-05-14T20:13:56.727Z,94.70
2018-05-14T20:16:24.256Z,94.90
2018-05-14T20:18:52.704Z,95.00
2018-05-14T20:21:37.901Z,95.00
2018-05-14T20:24:16.932Z,94.90
2018-05-14T20:26:45.393Z,94.90
2018-05-14T20:29:12.933Z,94.90
2018-05-14T20:31:40.491Z,95.00
2018-05-14T20:34:13.756Z,95.20
2018-05-14T20:36:42.336Z,95.40
2018-05-14T20:39:18.132Z,95.50
2018-05-14T20:41:45.676Z,95.60
2018-05-14T20:44:13.277Z,95.60
2018-05-14T20:46:48.423Z,95.70
2018-05-14T20:49:15.979Z,95.70
2018-05-14T20:51:44.279Z,96.30
2018-05-14T20:54:12.603Z,96.30
2018-05-14T20:56:40.158Z,96.30
2018-05-14T20:59:07.711Z,96.40
2018-05-14T21:01:35.322Z,96.60
2018-05-14T21:04:04.738Z,96.80
2018-05-14T21:06:32.307Z,96.70
2018-05-14T21:08:59.867Z,96.80
2018-05-14T21:11:27.429Z,96.80
2018-05-14T21:13:55.023Z,96.90
2018-05-14T21:16:22.573Z,97.10
2018-05-14T21:18:50.137Z,96.90
2018-05-14T21:21:17.694Z,96.90
2018-05-14T21:23:45.253Z,96.80
2018-05-14T21:26:12.853Z,96.60
2018-05-14T21:28:40.424Z,96.70
2018-05-14T21:31:07.958Z,97.00
2018-05-14T21:33:36.315Z,96.90
2018-05-14T21:36:03.907Z,96.90
2018-05-14T21:38:31.454Z,96.90
2018-05-14T21:40:58.994Z,96.90
2018-05-14T21:43:27.339Z,97.10
2018-05-14T21:45:54.887Z,97.00
2018-05-14T21:48:22.559Z,97.20
2018-05-14T21:50:50.067Z,97.20
2018-05-14T21:53:17.612Z,97.20
2018-05-14T21:55:45.918Z,97.10
2018-05-14T21:58:14.229Z,97.30
2018-05-14T22:00:41.777Z,97.00
2018-05-14T22:03:09.318Z,97.00
2018-05-14T22:05:50.034Z,96.90
2018-05-14T22:08:17.576Z,96.90
2018-05-14T22:10:45.106Z,97.20
2018-05-14T22:13:12.678Z,97.30
2018-05-14T22:15:40.228Z,97.60
2018-05-14T22:18:07.775Z,97.50
2018-05-14T22:20:36.199Z,97.40
2018-05-14T22:23:03.791Z,97.30
2018-05-14T22:25:31.391Z,97.50
2018-05-14T22:27:59.675Z,97.90
2018-05-14T22:30:27.234Z,98.10
2018-05-14T22:32:54.792Z,97.90
2018-05-14T22:35:22.335Z,97.90
2018-05-14T22:37:50.887Z,98.00
2018-05-14T22:40:19.205Z,97.90
2018-05-14T22:42:46.750Z,97.90
2018-05-14T22:45:14.275Z,98.00
2018-05-14T22:47:42.588Z,98.20
2018-05-14T22:50:10.128Z,97.90
2018-05-14T22:52:37.677Z,97.80
2018-05-14T22:55:05.233Z,98.00
2018-05-14T22:57:32.790Z,98.00
2018-05-14T23:00:00.317Z,98.20
2018-05-14T23:02:27.871Z,98.00
2018-05-14T23:04:55.406Z,97.90
2018-05-14T23:07:22.957Z,97.90
2018-05-14T23:09:50.487Z,97.70
2018-05-14T23:12:18.040Z,97.90
2018-05-14T23:14:46.336Z,98.20
2018-05-14T23:17:13.913Z,98.20
2018-05-14T23:19:41.466Z,98.00
2018-05-14T23:22:08.991Z,97.90
2018-05-14T23:24:36.534Z,97.90
2018-05-14T23:27:04.155Z,97.80
2018-05-14T23:29:31.692Z,97.80
2018-05-14T23:31:59.232Z,97.70
2018-05-14T23:34:26.784Z,97.50
2018-05-14T23:36:54.332Z,97.10
2018-05-14T23:39:21.886Z,97.30
2018-05-14T23:41:50.201Z,97.60
2018-05-14T23:44:17.734Z,97.60
2018-05-14T23:46:53.798Z,97.60
2018-05-14T23:49:22.120Z,97.40
2018-05-14T23:51:49.673Z,97.40
2018-05-14T23:54:17.239Z,97.20
2018-05-14T23:56:44.783Z,97.20
2018-05-14T23:59:12.351Z,97.30
